Time;durP1;ratioP1;P1;durP2;ratioP2;P2;SDS_P1;SDS_P2;PMS_P1;PMS_P2;Temp;Humidity;BMP_temperature;BMP_pressure;BME280_temperature;BME280_humidity;BME280_pressure;Samples;Min_cycle;Max_cycle;Signal;HPM_P1;HPM_P2
2023/04/07 00:00:57;;;;;;;17.17;12.53;;;6.20;1.00;;;;;;5013529;28;20201;-49
2023/04/07 00:03:22;;;;;;;20.23;12.57;;;6.10;1.00;;;;;;5013547;28;20183;-48
2023/04/07 00:05:48;;;;;;;16.63;11.80;;;6.00;1.00;;;;;;5013076;28;20687;-48
2023/04/07 00:08:14;;;;;;;19.40;12.90;;;6.00;1.00;;;;;;5013524;28;20206;-48
2023/04/07 00:10:39;;;;;;;17.83;12.83;;;5.90;1.00;;;;;;5013040;28;20661;-48
2023/04/07 00:13:05;;;;;;;16.03;11.57;;;5.90;1.00;;;;;;5013600;28;20276;-49
2023/04/07 00:15:31;;;;;;;16.77;11.90;;;5.90;1.00;;;;;;5013439;28;20468;-49
2023/04/07 00:17:56;;;;;;;17.77;11.63;;;5.90;1.00;;;;;;5013262;28;20185;-49
2023/04/07 00:20:22;;;;;;;19.40;12.30;;;5.90;1.00;;;;;;5013499;28;20274;-49
2023/04/07 00:22:48;;;;;;;17.20;12.50;;;5.80;1.00;;;;;;5013347;28;20187;-49
2023/04/07 00:25:13;;;;;;;21.10;12.30;;;5.80;1.00;;;;;;5013147;28;20179;-49
2023/04/07 00:27:39;;;;;;;21.03;12.87;;;5.80;1.00;;;;;;5013138;28;20179;-49
2023/04/07 00:30:05;;;;;;;18.97;13.00;;;5.70;1.00;;;;;;5013228;28;20732;-49
2023/04/07 00:32:31;;;;;;;18.03;12.40;;;5.70;1.00;;;;;;5013188;28;20194;-49
2023/04/07 00:34:57;;;;;;;20.53;12.53;;;5.70;1.00;;;;;;5013131;28;20422;-49
2023/04/07 00:37:24;;;;;;;22.03;13.00;;;5.60;1.00;;;;;;5013065;28;20197;-49
2023/04/07 00:39:50;;;;;;;21.20;12.90;;;5.70;1.00;;;;;;5012631;28;20610;-49
2023/04/07 00:42:16;;;;;;;22.17;12.67;;;5.70;1.00;;;;;;5016398;28;20790;-49
2023/04/07 00:44:41;;;;;;;16.93;12.20;;;5.70;1.00;;;;;;5015947;28;20478;-49
2023/04/07 00:47:07;;;;;;;15.10;12.07;;;5.70;1.00;;;;;;5016703;28;20183;-49
2023/04/07 00:49:33;;;;;;;20.30;13.17;;;5.60;1.00;;;;;;5016306;28;20629;-49
2023/04/07 00:51:59;;;;;;;17.83;12.40;;;5.60;1.00;;;;;;5016586;28;20218;-49
2023/04/07 00:54:25;;;;;;;17.70;12.63;;;5.70;1.00;;;;;;5016230;28;20425;-49
2023/04/07 00:56:54;;;;;;;16.20;11.30;;;5.80;1.00;;;;;;5016072;28;20424;-49
2023/04/07 00:59:20;;;;;;;19.83;13.57;;;5.80;1.00;;;;;;5016075;28;20659;-49
2023/04/07 01:02:03;;;;;;;19.93;12.57;;;5.70;1.00;;;;;;5016277;28;20426;-49
2023/04/07 01:04:44;;;;;;;18.90;12.93;;;5.70;1.00;;;;;;5016021;28;20410;-49
2023/04/07 01:07:31;;;;;;;16.00;12.50;;;5.70;1.00;;;;;;5016295;28;20416;-49
2023/04/07 01:10:03;;;;;;;18.80;13.40;;;5.70;1.00;;;;;;5016150;28;20451;-49
2023/04/07 01:13:03;;;;;;;18.87;12.40;;;5.60;1.00;;;;;;5015977;28;20917;-49
2023/04/07 01:15:32;;;;;;;19.53;12.40;;;5.60;1.00;;;;;;5016434;28;20406;-49
2023/04/07 01:18:23;;;;;;;19.20;12.73;;;5.60;1.00;;;;;;5016056;28;20477;-49
2023/04/07 01:20:51;;;;;;;19.33;11.70;;;5.50;1.00;;;;;;5010827;28;20533;-49
2023/04/07 01:23:37;;;;;;;18.10;12.47;;;5.50;1.00;;;;;;5015994;28;20897;-49
2023/04/07 01:26:17;;;;;;;17.17;12.10;;;5.40;1.00;;;;;;5014543;28;20411;-50
2023/04/07 01:29:01;;;;;;;20.00;11.97;;;5.40;1.00;;;;;;5015520;28;20421;-49
2023/04/07 01:31:29;;;;;;;15.70;12.70;;;5.40;1.00;;;;;;5015362;28;20424;-49
2023/04/07 01:33:58;;;;;;;18.50;12.43;;;5.30;1.00;;;;;;5015964;28;20422;-49
2023/04/07 01:36:27;;;;;;;21.53;12.90;;;5.40;1.00;;;;;;5015824;28;20525;-50
2023/04/07 01:38:53;;;;;;;17.33;12.63;;;5.40;1.00;;;;;;5015598;28;20430;-49
2023/04/07 01:41:20;;;;;;;21.27;11.83;;;5.40;1.00;;;;;;5015472;28;20516;-49
2023/04/07 01:43:46;;;;;;;21.33;12.27;;;5.30;1.00;;;;;;5015073;28;20453;-49
2023/04/07 01:46:13;;;;;;;16.40;11.80;;;5.30;1.00;;;;;;5015565;28;20773;-50
2023/04/07 01:48:40;;;;;;;16.90;12.23;;;5.20;1.00;;;;;;5015277;28;20432;-49
2023/04/07 01:51:07;;;;;;;17.60;12.20;;;5.10;1.00;;;;;;5015116;28;20468;-49
2023/04/07 01:53:36;;;;;;;15.00;11.27;;;5.10;1.00;;;;;;5014328;28;20876;-49
2023/04/07 01:56:02;;;;;;;19.10;10.90;;;5.20;1.00;;;;;;5015196;28;20997;-49
2023/04/07 01:58:28;;;;;;;16.47;11.47;;;5.20;1.00;;;;;;5015277;28;20759;-49
2023/04/07 02:00:54;;;;;;;14.30;12.00;;;5.20;1.00;;;;;;5015057;28;20478;-50
2023/04/07 02:03:35;;;;;;;18.10;11.70;;;5.20;1.00;;;;;;5014790;28;20218;-50
2023/04/07 02:06:06;;;;;;;17.73;11.97;;;5.10;1.00;;;;;;5015172;28;20264;-49
2023/04/07 02:08:35;;;;;;;16.80;11.27;;;5.10;1.00;;;;;;5015452;28;20777;-50
2023/04/07 02:11:02;;;;;;;16.17;11.57;;;5.00;1.00;;;;;;5014738;28;20514;-50
2023/04/07 02:13:29;;;;;;;17.63;11.70;;;5.00;1.00;;;;;;5014843;28;20798;-48
2023/04/07 02:15:56;;;;;;;17.83;11.90;;;4.90;1.00;;;;;;5015045;28;20500;-49
2023/04/07 02:18:24;;;;;;;15.07;11.00;;;4.80;1.00;;;;;;5014680;28;20932;-49
2023/04/07 02:20:50;;;;;;;16.00;11.40;;;4.80;1.00;;;;;;5014723;28;20455;-51
2023/04/07 02:23:16;;;;;;;15.43;11.70;;;4.80;1.00;;;;;;5015230;28;20411;-49
2023/04/07 02:25:42;;;;;;;17.07;11.07;;;4.70;1.00;;;;;;5015020;28;20824;-49
2023/04/07 02:28:08;;;;;;;15.90;10.63;;;4.70;1.00;;;;;;5014673;28;20433;-50
2023/04/07 02:30:34;;;;;;;17.00;11.20;;;4.70;1.00;;;;;;5014624;28;20211;-49
2023/04/07 02:33:00;;;;;;;15.57;10.70;;;4.70;1.00;;;;;;5014901;28;20191;-49
2023/04/07 02:35:25;;;;;;;15.27;11.03;;;4.70;1.00;;;;;;5014479;28;20913;-49
2023/04/07 02:37:51;;;;;;;15.10;11.53;;;4.60;1.00;;;;;;5014415;28;20665;-49
2023/04/07 02:40:17;;;;;;;14.33;10.90;;;4.60;1.00;;;;;;5014533;28;20713;-49
2023/04/07 02:42:43;;;;;;;17.70;11.27;;;4.60;1.00;;;;;;5013977;28;20700;-49
2023/04/07 02:45:10;;;;;;;13.70;11.00;;;4.60;1.00;;;;;;5013892;28;20471;-50
2023/04/07 02:47:36;;;;;;;10.87;8.93;;;4.60;1.00;;;;;;5014136;28;20757;-49
2023/04/07 02:50:02;;;;;;;17.37;10.10;;;4.60;1.00;;;;;;5014221;28;20457;-49
2023/04/07 02:52:28;;;;;;;14.03;10.30;;;4.50;1.00;;;;;;5014426;28;20449;-49
2023/04/07 02:54:53;;;;;;;16.90;10.43;;;4.50;1.00;;;;;;5014198;28;20739;-49
2023/04/07 02:57:19;;;;;;;12.70;9.50;;;4.50;1.00;;;;;;5014235;28;20200;-49
2023/04/07 02:59:44;;;;;;;12.57;9.03;;;4.50;1.00;;;;;;5014333;28;20277;-49
2023/04/07 03:02:10;;;;;;;13.20;10.00;;;4.50;1.00;;;;;;5014294;28;20236;-50
2023/04/07 03:04:36;;;;;;;13.23;9.67;;;4.50;1.00;;;;;;5014256;28;20186;-49
2023/04/07 03:07:02;;;;;;;12.98;10.00;;;4.50;1.00;;;;;;5013828;28;20403;-49
2023/04/07 03:09:27;;;;;;;13.00;10.10;;;4.50;1.00;;;;;;5013985;28;20211;-51
2023/04/07 03:11:53;;;;;;;13.03;9.77;;;4.50;1.00;;;;;;5013843;28;20643;-50
2023/04/07 03:14:19;;;;;;;12.97;9.63;;;4.50;1.00;;;;;;5013838;28;20275;-50
2023/04/07 03:16:45;;;;;;;13.43;8.70;;;4.40;1.00;;;;;;5014256;28;20183;-50
2023/04/07 03:19:10;;;;;;;11.97;9.50;;;4.40;1.00;;;;;;5013791;28;20424;-49
2023/04/07 03:21:37;;;;;;;13.47;9.40;;;4.40;1.00;;;;;;5013827;28;20187;-50
2023/04/07 03:24:04;;;;;;;11.73;8.57;;;4.30;1.00;;;;;;5014059;28;20238;-50
2023/04/07 03:26:29;;;;;;;13.80;9.10;;;4.20;1.00;;;;;;5014053;28;20427;-49
2023/04/07 03:28:55;;;;;;;17.63;9.70;;;4.20;1.00;;;;;;5013749;28;20414;-49
2023/04/07 03:31:21;;;;;;;14.80;9.47;;;4.20;1.00;;;;;;5013157;28;20276;-49
2023/04/07 03:33:49;;;;;;;12.20;8.70;;;4.20;1.00;;;;;;5012745;28;20536;-49
2023/04/07 03:36:16;;;;;;;14.23;9.70;;;4.20;1.00;;;;;;5013816;28;20424;-49
2023/04/07 03:38:41;;;;;;;14.07;9.63;;;4.10;1.00;;;;;;5013881;28;20841;-49
2023/04/07 03:41:07;;;;;;;14.17;10.20;;;4.00;1.00;;;;;;5013386;28;20505;-49
2023/04/07 03:43:32;;;;;;;11.23;8.97;;;4.00;1.00;;;;;;5013867;28;20182;-51
2023/04/07 03:45:58;;;;;;;14.57;10.03;;;4.00;1.00;;;;;;5014155;28;20232;-50
2023/04/07 03:48:24;;;;;;;16.00;9.20;;;4.00;1.00;;;;;;5013554;28;20182;-50
2023/04/07 03:50:49;;;;;;;12.50;9.13;;;4.00;1.00;;;;;;5013751;28;20215;-49
2023/04/07 03:53:15;;;;;;;14.13;9.20;;;3.90;1.00;;;;;;5013373;28;20244;-49
2023/04/07 03:55:42;;;;;;;13.80;9.83;;;3.90;1.00;;;;;;5013392;28;20548;-50
2023/04/07 03:58:08;;;;;;;12.77;9.20;;;3.80;1.00;;;;;;5013465;28;20750;-50
2023/04/07 04:00:34;;;;;;;13.50;9.60;;;3.90;1.00;;;;;;5013598;28;20493;-50
2023/04/07 04:03:00;;;;;;;16.10;9.40;;;3.90;1.00;;;;;;5013452;28;20902;-50
2023/04/07 04:05:26;;;;;;;12.63;9.43;;;3.90;1.00;;;;;;5013280;28;20241;-50
2023/04/07 04:07:51;;;;;;;13.53;9.20;;;3.90;1.00;;;;;;5013425;28;20418;-51
2023/04/07 04:10:20;;;;;;;13.80;9.47;;;4.00;1.00;;;;;;5013241;28;20210;-48
2023/04/07 04:12:47;;;;;;;12.73;9.40;;;4.00;1.00;;;;;;5013389;28;20242;-50
2023/04/07 04:15:13;;;;;;;11.90;8.87;;;3.90;1.00;;;;;;5013902;28;20453;-48
2023/04/07 04:17:39;;;;;;;12.20;9.30;;;3.90;1.00;;;;;;5017112;28;20418;-49
2023/04/07 04:20:05;;;;;;;13.43;9.40;;;3.90;1.00;;;;;;5017059;28;20657;-49
2023/04/07 04:22:31;;;;;;;15.30;9.20;;;4.00;1.00;;;;;;5016887;28;20653;-49
2023/04/07 04:24:56;;;;;;;11.57;8.53;;;4.00;1.00;;;;;;5017014;28;20445;-50
2023/04/07 04:27:22;;;;;;;11.60;8.50;;;4.00;1.00;;;;;;5017023;28;20219;-49
2023/04/07 04:29:47;;;;;;;11.60;9.00;;;4.00;1.00;;;;;;5016975;28;20302;-49
2023/04/07 04:32:13;;;;;;;11.70;9.10;;;4.00;1.00;;;;;;5016534;28;20181;-49
2023/04/07 04:34:40;;;;;;;12.03;9.20;;;4.00;1.00;;;;;;5016480;28;20188;-49
2023/04/07 04:37:06;;;;;;;11.87;8.90;;;4.00;1.00;;;;;;5016622;28;20214;-49
2023/04/07 04:39:32;;;;;;;12.60;8.97;;;3.90;1.00;;;;;;5016752;28;20418;-49
2023/04/07 04:41:58;;;;;;;11.90;8.13;;;4.00;1.00;;;;;;5016185;28;20182;-49
2023/04/07 04:44:23;;;;;;;12.40;8.80;;;3.90;1.00;;;;;;5016489;28;20321;-49
2023/04/07 04:46:50;;;;;;;11.37;8.70;;;3.90;1.00;;;;;;5016446;28;20175;-49
2023/04/07 04:49:17;;;;;;;13.47;8.67;;;4.00;1.00;;;;;;5016626;28;20187;-49
2023/04/07 04:51:43;;;;;;;11.60;8.60;;;4.00;1.00;;;;;;5016430;28;20428;-49
2023/04/07 04:54:09;;;;;;;13.53;8.80;;;4.00;1.00;;;;;;5016502;28;20417;-49
2023/04/07 04:56:35;;;;;;;12.03;9.07;;;3.90;1.00;;;;;;5016539;28;20973;-49
2023/04/07 04:59:02;;;;;;;11.83;8.73;;;3.80;1.00;;;;;;5016495;28;20189;-49
2023/04/07 05:01:27;;;;;;;12.00;8.83;;;3.80;1.00;;;;;;5016271;28;20865;-50
2023/04/07 05:03:53;;;;;;;13.57;8.30;;;3.90;1.00;;;;;;5016303;28;20413;-49
2023/04/07 05:06:18;;;;;;;13.63;8.67;;;3.90;1.00;;;;;;5016171;28;20209;-50
2023/04/07 05:08:44;;;;;;;9.50;7.87;;;4.00;1.00;;;;;;5016386;28;20194;-50
2023/04/07 05:11:10;;;;;;;12.50;8.60;;;4.00;1.00;;;;;;5016137;28;20593;-50
2023/04/07 05:13:36;;;;;;;11.13;7.90;;;4.00;1.00;;;;;;5016309;28;20212;-49
2023/04/07 05:16:02;;;;;;;12.50;8.70;;;4.10;1.00;;;;;;5015898;28;20971;-50
2023/04/07 05:18:27;;;;;;;13.23;8.77;;;4.20;1.00;;;;;;5015981;28;20350;-49
2023/04/07 05:20:53;;;;;;;14.53;8.23;;;4.20;1.00;;;;;;5015528;28;20209;-49
2023/04/07 05:23:18;;;;;;;10.87;8.03;;;4.20;1.00;;;;;;5014487;28;20185;-50
2023/04/07 05:25:44;;;;;;;10.73;8.20;;;4.20;1.00;;;;;;5015721;28;20216;-49
2023/04/07 05:28:09;;;;;;;15.10;8.87;;;4.20;1.00;;;;;;5014407;28;20181;-49
2023/04/07 05:30:35;;;;;;;9.93;8.23;;;4.20;1.00;;;;;;5015564;28;20770;-49
2023/04/07 05:33:01;;;;;;;11.60;8.40;;;4.20;1.00;;;;;;5015887;28;20185;-50
2023/04/07 05:35:26;;;;;;;12.80;8.20;;;4.30;1.00;;;;;;5015532;28;20180;-50
2023/04/07 05:37:52;;;;;;;11.30;7.73;;;4.30;1.00;;;;;;5015420;28;20235;-50
2023/04/07 05:40:18;;;;;;;13.10;8.00;;;4.30;1.00;;;;;;5015539;28;20198;-50
2023/04/07 05:42:43;;;;;;;11.83;8.90;;;4.30;1.00;;;;;;5015457;28;20631;-50
2023/04/07 05:45:09;;;;;;;9.97;8.07;;;4.30;1.00;;;;;;5015518;28;20234;-50
2023/04/07 05:47:35;;;;;;;12.60;9.00;;;4.40;1.00;;;;;;5015375;28;20183;-50
2023/04/07 05:50:00;;;;;;;12.60;8.10;;;4.50;1.00;;;;;;5015177;28;20523;-49
2023/04/07 05:52:27;;;;;;;13.93;7.60;;;4.60;1.00;;;;;;5014912;28;20214;-50
2023/04/07 05:54:53;;;;;;;13.90;8.77;;;4.60;1.00;;;;;;5015516;28;20416;-51
2023/04/07 05:57:18;;;;;;;12.47;8.80;;;4.60;1.00;;;;;;5014919;28;20176;-50
2023/04/07 05:59:44;;;;;;;14.47;8.60;;;4.60;1.00;;;;;;5015168;28;20285;-50
2023/04/07 06:02:10;;;;;;;12.77;8.27;;;4.60;1.00;;;;;;5015329;28;20194;-50
2023/04/07 06:04:35;;;;;;;13.90;8.10;;;4.70;1.00;;;;;;5015467;28;20418;-51
2023/04/07 06:07:02;;;;;;;12.17;7.77;;;4.80;1.00;;;;;;5015239;28;20195;-50
2023/04/07 06:09:27;;;;;;;14.50;8.80;;;4.90;1.00;;;;;;5014821;28;20214;-50
2023/04/07 06:11:53;;;;;;;10.20;7.60;;;5.00;1.00;;;;;;5015486;28;20520;-50
2023/04/07 06:14:18;;;;;;;9.33;7.17;;;5.20;1.00;;;;;;5015201;28;20574;-49
2023/04/07 06:16:44;;;;;;;11.80;7.70;;;5.40;1.00;;;;;;5015188;28;20640;-49
2023/04/07 06:19:10;;;;;;;10.10;7.37;;;5.60;1.00;;;;;;5015008;28;20582;-49
2023/04/07 06:21:35;;;;;;;11.50;7.47;;;5.80;1.00;;;;;;5014894;28;20188;-51
2023/04/07 06:24:01;;;;;;;12.90;7.90;;;6.00;1.00;;;;;;5014852;28;20539;-49
2023/04/07 06:26:27;;;;;;;12.20;8.43;;;6.20;1.00;;;;;;5014575;28;20185;-50
2023/04/07 06:28:53;;;;;;;10.47;7.17;;;6.40;1.00;;;;;;5014673;28;20547;-49
2023/04/07 06:31:18;;;;;;;12.63;8.10;;;6.60;1.00;;;;;;5014413;28;20682;-50
2023/04/07 06:33:44;;;;;;;11.47;7.80;;;6.70;1.00;;;;;;5014391;28;20186;-49
2023/04/07 06:36:11;;;;;;;9.93;7.70;;;6.80;1.00;;;;;;5014711;28;20600;-49
2023/04/07 06:38:37;;;;;;;12.73;7.60;;;7.00;1.00;;;;;;5014447;28;20429;-49
2023/04/07 06:41:03;;;;;;;14.70;8.13;;;7.20;1.00;;;;;;5014283;28;20417;-49
2023/04/07 06:43:29;;;;;;;13.13;7.90;;;7.50;1.00;;;;;;5014178;28;20480;-49
2023/04/07 06:45:55;;;;;;;12.33;8.40;;;7.50;1.00;;;;;;5013893;28;20487;-52
2023/04/07 06:48:21;;;;;;;13.53;7.80;;;7.60;1.00;;;;;;5014430;28;20436;-49
2023/04/07 06:50:48;;;;;;;11.50;8.20;;;7.70;1.00;;;;;;5014263;28;20206;-49
2023/04/07 06:53:14;;;;;;;11.47;8.10;;;7.90;1.00;;;;;;5014355;28;20181;-49
2023/04/07 06:55:40;;;;;;;12.90;8.60;;;8.00;1.00;;;;;;5014030;28;20883;-49
2023/04/07 06:58:05;;;;;;;11.27;8.03;;;8.10;1.00;;;;;;5014278;28;20187;-49
2023/04/07 07:00:31;;;;;;;10.83;8.07;;;8.30;1.00;;;;;;5014229;28;20479;-50
2023/04/07 07:02:57;;;;;;;14.80;8.50;;;8.70;1.00;;;;;;5014231;28;20526;-49
2023/04/07 07:05:22;;;;;;;12.40;8.50;;;8.80;1.00;;;;;;5013949;28;20230;-49
2023/04/07 07:07:49;;;;;;;13.40;8.20;;;8.90;1.00;;;;;;5014357;28;20737;-49
2023/04/07 07:10:15;;;;;;;13.70;8.30;;;9.10;1.00;;;;;;5014232;28;20305;-51
2023/04/07 07:12:40;;;;;;;19.83;9.17;;;9.10;1.00;;;;;;5014200;28;20872;-49
2023/04/07 07:15:06;;;;;;;12.67;8.20;;;9.40;1.00;;;;;;5013864;28;20260;-49
2023/04/07 07:17:32;;;;;;;12.23;7.60;;;9.70;1.00;;;;;;5014071;28;20249;-49
2023/04/07 07:19:58;;;;;;;10.70;7.60;;;9.90;1.00;;;;;;5014457;28;20417;-49
2023/04/07 07:22:24;;;;;;;8.93;7.60;;;10.30;1.00;;;;;;5014287;28;20517;-49
2023/04/07 07:24:50;;;;;;;17.17;8.10;;;10.60;1.00;;;;;;5013891;28;20179;-50
2023/04/07 07:27:15;;;;;;;13.77;8.47;;;10.60;1.00;;;;;;5013881;28;20790;-49
2023/04/07 07:29:41;;;;;;;11.60;8.17;;;10.80;1.00;;;;;;5014289;28;20211;-49
2023/04/07 07:32:07;;;;;;;11.63;8.23;;;11.00;1.00;;;;;;5013865;28;20183;-49
2023/04/07 07:34:32;;;;;;;8.30;7.17;;;11.30;1.00;;;;;;5013672;28;20425;-49
2023/04/07 07:36:58;;;;;;;12.17;7.97;;;11.50;1.00;;;;;;5013952;28;20550;-49
2023/04/07 07:39:25;;;;;;;10.43;7.80;;;11.60;1.00;;;;;;5014129;28;20190;-49
2023/04/07 07:41:51;;;;;;;10.53;7.57;;;11.90;1.00;;;;;;5013465;28;20445;-50
2023/04/07 07:44:19;;;;;;;9.83;7.93;;;12.10;1.00;;;;;;5013461;28;20505;-50
2023/04/07 07:46:44;;;;;;;10.73;7.60;;;12.40;1.00;;;;;;5013973;28;20237;-49
2023/04/07 07:49:10;;;;;;;9.70;7.63;;;12.90;1.00;;;;;;5014013;28;20448;-49
2023/04/07 07:51:36;;;;;;;12.00;7.63;;;13.60;1.00;;;;;;5016829;28;20286;-50
2023/04/07 07:54:02;;;;;;;8.80;7.13;;;13.80;1.00;;;;;;5017612;28;20190;-50
2023/04/07 07:56:28;;;;;;;10.60;7.90;;;13.90;1.00;;;;;;5017675;28;20187;-50
2023/04/07 07:58:53;;;;;;;10.00;7.50;;;14.20;1.00;;;;;;5017467;28;20554;-50
2023/04/07 08:01:19;;;;;;;11.40;8.27;;;14.40;1.00;;;;;;5017808;28;20268;-50
2023/04/07 08:03:45;;;;;;;10.57;7.17;;;14.50;1.00;;;;;;5017947;28;20522;-50
2023/04/07 08:06:10;;;;;;;12.20;7.43;;;14.60;1.00;;;;;;5017607;28;20675;-50
2023/04/07 08:08:36;;;;;;;9.27;7.40;;;14.90;1.00;;;;;;5017275;28;20183;-50
2023/04/07 08:11:02;;;;;;;10.00;7.03;;;14.80;1.00;;;;;;5017669;28;20264;-50
2023/04/07 08:13:28;;;;;;;8.87;6.67;;;14.70;1.00;;;;;;5016993;28;20188;-50
2023/04/07 08:15:53;;;;;;;8.80;6.90;;;14.70;1.00;;;;;;5016913;28;20243;-50
2023/04/07 08:18:19;;;;;;;10.70;7.50;;;14.60;1.00;;;;;;5016878;28;20198;-50
2023/04/07 08:20:45;;;;;;;9.40;7.17;;;14.90;1.00;;;;;;5017358;28;20191;-51
2023/04/07 08:23:11;;;;;;;8.00;6.70;;;15.20;1.00;;;;;;5017235;28;20192;-50
2023/04/07 08:25:38;;;;;;;7.53;6.60;;;15.30;1.00;;;;;;5017204;28;20895;-50
2023/04/07 08:28:05;;;;;;;12.10;6.73;;;15.30;1.00;;;;;;5017169;28;20421;-51
2023/04/07 08:30:30;;;;;;;9.17;6.73;;;15.60;1.00;;;;;;5016847;28;20484;-50
2023/04/07 08:32:56;;;;;;;10.07;6.30;;;15.50;1.00;;;;;;5016923;28;21192;-51
2023/04/07 08:35:22;;;;;;;12.53;7.00;;;15.80;1.00;;;;;;5017007;28;20179;-50
2023/04/07 08:37:48;;;;;;;14.03;6.87;;;15.60;1.00;;;;;;5016943;28;20238;-51
2023/04/07 08:40:14;;;;;;;7.53;5.90;;;15.70;1.00;;;;;;5016967;28;20191;-51
2023/04/07 08:42:45;;;;;;;9.20;6.97;;;15.80;1.00;;;;;;5016914;28;20429;-50
2023/04/07 08:45:12;;;;;;;7.57;6.07;;;16.20;1.00;;;;;;5016737;28;20710;-51
2023/04/07 08:47:40;;;;;;;9.47;6.53;;;16.30;1.00;;;;;;5016668;28;20501;-50
2023/04/07 08:50:08;;;;;;;10.07;6.80;;;16.00;1.00;;;;;;5016507;28;20457;-51
2023/04/07 08:52:47;;;;;;;9.80;6.80;;;15.60;1.00;;;;;;5016728;28;20425;-51
2023/04/07 08:55:13;;;;;;;7.37;5.67;;;14.90;1.00;;;;;;5016274;28;20429;-50
2023/04/07 08:57:41;;;;;;;9.73;7.00;;;14.50;1.00;;;;;;5016298;28;20430;-50
2023/04/07 09:00:07;;;;;;;10.93;6.63;;;14.50;1.00;;;;;;5016555;28;20422;-51
2023/04/07 09:02:34;;;;;;;11.70;7.10;;;14.70;1.00;;;;;;5015785;28;20414;-50
2023/04/07 09:05:02;;;;;;;10.47;7.00;;;14.80;1.00;;;;;;5016309;28;20508;-49
2023/04/07 09:07:27;;;;;;;9.37;6.50;;;15.10;1.00;;;;;;5015871;28;20902;-50
2023/04/07 09:09:54;;;;;;;10.90;7.80;;;15.40;1.00;;;;;;5016619;28;20549;-52
2023/04/07 09:12:20;;;;;;;10.40;7.07;;;15.20;1.00;;;;;;5016288;28;20191;-50
2023/04/07 09:14:46;;;;;;;10.80;6.90;;;15.50;1.00;;;;;;5016389;28;20426;-51
2023/04/07 09:17:11;;;;;;;14.40;6.60;;;15.70;1.00;;;;;;5015891;28;20213;-53
2023/04/07 09:19:37;;;;;;;11.93;7.57;;;15.80;1.00;;;;;;5015895;28;20186;-52
2023/04/07 09:22:02;;;;;;;12.90;8.10;;;16.00;1.00;;;;;;5016023;28;20190;-51
2023/04/07 09:24:30;;;;;;;11.23;7.73;;;15.90;1.00;;;;;;5015747;28;20233;-51
2023/04/07 09:27:17;;;;;;;8.47;7.37;;;15.50;99.90;;;;;;5015872;28;20233;-51
2023/04/07 09:29:45;;;;;;;7.97;6.60;;;15.20;99.90;;;;;;5015982;28;20508;-50
2023/04/07 09:32:12;;;;;;;9.50;6.47;;;14.80;99.90;;;;;;5013624;28;20422;-50
2023/04/07 09:34:40;;;;;;;9.13;7.20;;;14.10;1.00;;;;;;5013393;28;20513;-50
2023/04/07 09:37:08;;;;;;;9.57;7.20;;;13.90;1.00;;;;;;5013665;28;20417;-51
2023/04/07 09:39:47;;;;;;;9.53;7.20;;;13.80;1.00;;;;;;5013727;28;20414;-50
2023/04/07 09:42:13;;;;;;;10.30;7.60;;;13.80;1.00;;;;;;5013621;28;20433;-51
2023/04/07 09:44:40;;;;;;;12.30;7.77;;;13.50;1.00;;;;;;5013286;28;20961;-51
2023/04/07 09:47:06;;;;;;;10.60;7.07;;;13.50;1.00;;;;;;5013510;28;20193;-51
2023/04/07 09:49:32;;;;;;;8.50;7.23;;;13.60;1.00;;;;;;5013403;28;20504;-51
2023/04/07 09:52:03;;;;;;;9.97;7.60;;;13.60;1.00;;;;;;5013295;28;20278;-50
2023/04/07 09:54:36;;;;;;;10.23;6.73;;;13.80;1.00;;;;;;5013428;28;20485;-51
2023/04/07 09:57:03;;;;;;;10.47;7.40;;;14.00;1.00;;;;;;5013326;28;20480;-51
2023/04/07 09:59:31;;;;;;;10.70;7.87;;;13.80;1.00;;;;;;5013135;28;20470;-51
2023/04/07 10:01:57;;;;;;;11.33;8.03;;;13.70;1.00;;;;;;5013234;28;20499;-50
2023/04/07 10:04:24;;;;;;;11.40;8.67;;;13.70;1.00;;;;;;5013024;28;20425;-50
2023/04/07 10:06:51;;;;;;;12.60;8.80;;;13.70;1.00;;;;;;5012789;28;20418;-50
2023/04/07 10:09:17;;;;;;;15.20;8.00;;;13.50;1.00;;;;;;5012963;28;20460;-51
2023/04/07 10:11:43;;;;;;;10.50;7.77;;;13.30;1.00;;;;;;5012694;28;20945;-51
2023/04/07 10:14:10;;;;;;;11.17;7.93;;;13.50;1.00;;;;;;5012160;28;20422;-50
2023/04/07 10:16:41;;;;;;;8.00;6.77;;;13.60;1.00;;;;;;5012615;28;20995;-50
2023/04/07 10:19:07;;;;;;;8.67;6.80;;;13.50;1.00;;;;;;5012616;28;20916;-49
2023/04/07 10:21:39;;;;;;;8.97;6.37;;;13.50;1.00;;;;;;5012861;28;20801;-50
2023/04/07 10:24:08;;;;;;;7.20;6.17;;;13.30;1.00;;;;;;5012793;28;20508;-51
2023/04/07 10:26:35;;;;;;;8.10;6.40;;;13.30;1.00;;;;;;5012500;28;20421;-50
2023/04/07 10:29:09;;;;;;;9.47;6.20;;;13.70;1.00;;;;;;5012749;28;20477;-51
2023/04/07 10:31:36;;;;;;;8.27;5.90;;;13.70;1.00;;;;;;5012237;28;20461;-51
2023/04/07 10:34:02;;;;;;;7.10;6.10;;;13.50;1.00;;;;;;5012441;28;20453;-50
2023/04/07 10:36:28;;;;;;;7.23;6.03;;;13.50;1.00;;;;;;5012314;28;20426;-50
2023/04/07 10:39:05;;;;;;;10.30;6.00;;;13.70;1.00;;;;;;5012187;28;20191;-51
2023/04/07 10:41:41;;;;;;;9.40;6.30;;;14.20;1.00;;;;;;5012524;28;20183;-51
2023/04/07 10:44:09;;;;;;;6.93;5.60;;;14.80;99.90;;;;;;5012842;28;20512;-51
2023/04/07 10:46:44;;;;;;;9.03;6.10;;;15.00;99.90;;;;;;5012642;28;20905;-50
2023/04/07 10:49:10;;;;;;;7.80;6.20;;;14.80;99.90;;;;;;5012600;28;20424;-50
2023/04/07 10:51:36;;;;;;;7.30;6.10;;;14.70;99.90;;;;;;5012013;28;21031;-51
2023/04/07 10:54:21;;;;;;;7.40;5.57;;;14.90;99.90;;;;;;5012243;28;20417;-51
2023/04/07 10:57:02;;;;;;;11.87;5.87;;;15.40;99.90;;;;;;5012467;28;20190;-52
2023/04/07 10:59:28;;;;;;;8.83;6.27;;;16.30;99.90;;;;;;5012094;28;20428;-52
2023/04/07 11:02:16;;;;;;;8.17;6.87;;;17.10;99.90;;;;;;5011910;28;20417;-51
2023/04/07 11:04:44;;;;;;;9.03;6.20;;;17.40;99.90;;;;;;5012179;28;20440;-51
2023/04/07 11:07:10;;;;;;;8.60;6.43;;;17.70;99.90;;;;;;5012165;28;20443;-53
2023/04/07 11:09:36;;;;;;;8.90;6.30;;;18.00;99.90;;;;;;5011737;28;21212;-52
2023/04/07 11:12:02;;;;;;;12.23;6.30;;;18.30;99.90;;;;;;5011832;28;20433;-53
2023/04/07 11:14:29;;;;;;;9.87;7.00;;;18.50;99.90;;;;;;5011822;28;20184;-53
2023/04/07 11:16:55;;;;;;;8.10;6.57;;;18.40;99.90;;;;;;5011621;28;20418;-52
2023/04/07 11:19:21;;;;;;;8.77;6.13;;;18.30;99.90;;;;;;5011660;28;20422;-53
2023/04/07 11:21:47;;;;;;;6.97;6.27;;;18.90;99.90;;;;;;5011893;28;20512;-53
2023/04/07 11:24:51;;;;;;;9.43;7.10;;;19.20;99.90;;;;;;5011836;28;20671;-53
2023/04/07 11:27:17;;;;;;;8.00;6.33;;;19.00;99.90;;;;;;5008981;28;20218;-52
2023/04/07 11:29:42;;;;;;;12.17;7.10;;;19.20;99.90;;;;;;5008919;28;20466;-53
2023/04/07 11:32:08;;;;;;;9.50;7.50;;;19.20;99.90;;;;;;5010121;28;20210;-51
2023/04/07 11:34:35;;;;;;;11.97;7.70;;;19.40;99.90;;;;;;5011466;28;20182;-52
2023/04/07 11:37:21;;;;;;;8.70;6.90;;;19.60;99.90;;;;;;5011703;28;20182;-52
2023/04/07 11:39:53;;;;;;;8.77;7.17;;;19.50;99.90;;;;;;5011656;28;20437;-53
2023/04/07 11:42:32;;;;;;;9.50;6.53;;;19.40;99.90;;;;;;5011665;28;20450;-52
2023/04/07 11:44:58;;;;;;;10.60;7.40;;;19.60;99.90;;;;;;5010978;28;20480;-52
2023/04/07 11:47:34;;;;;;;8.33;7.00;;;18.60;99.90;;;;;;5011729;28;20418;-52
2023/04/07 11:50:00;;;;;;;9.97;7.20;;;18.50;99.90;;;;;;5011406;28;20689;-51
2023/04/07 11:52:26;;;;;;;9.50;6.20;;;18.50;99.90;;;;;;5011366;28;20421;-52
2023/04/07 11:54:52;;;;;;;8.30;6.20;;;18.70;99.90;;;;;;5011317;28;20183;-53
2023/04/07 11:57:28;;;;;;;8.43;6.40;;;19.20;99.90;;;;;;5011688;28;20191;-51
2023/04/07 12:00:10;;;;;;;6.60;5.90;;;19.50;99.90;;;;;;5011586;28;20425;-53
2023/04/07 12:02:36;;;;;;;7.60;6.03;;;19.30;99.90;;;;;;5011301;28;20413;-53
2023/04/07 12:05:06;;;;;;;8.57;5.73;;;19.70;99.90;;;;;;5010997;28;20980;-50
2023/04/07 12:07:32;;;;;;;8.60;5.53;;;19.90;99.90;;;;;;5011019;28;20413;-52
2023/04/07 12:09:57;;;;;;;7.57;4.90;;;19.60;99.90;;;;;;5011369;28;20467;-53
2023/04/07 12:12:32;;;;;;;5.53;4.70;;;19.90;99.90;;;;;;5011242;28;20677;-53
2023/04/07 12:14:57;;;;;;;7.50;5.50;;;19.80;99.90;;;;;;5011004;28;20253;-54
2023/04/07 12:17:24;;;;;;;6.53;5.30;;;19.90;99.90;;;;;;5011093;28;20414;-52
2023/04/07 12:19:50;;;;;;;8.13;5.70;;;19.80;99.90;;;;;;5011112;28;20199;-53
2023/04/07 12:22:15;;;;;;;6.67;5.20;;;19.50;99.90;;;;;;5011056;28;20413;-54
2023/04/07 12:24:41;;;;;;;7.70;6.10;;;18.80;99.90;;;;;;5011317;28;20186;-52
2023/04/07 12:27:07;;;;;;;7.93;4.97;;;18.70;99.90;;;;;;5010970;28;20179;-52
2023/04/07 12:29:33;;;;;;;7.53;4.80;;;18.80;99.90;;;;;;5010931;28;20651;-52
2023/04/07 12:31:59;;;;;;;6.67;5.40;;;18.80;99.90;;;;;;5011182;28;20214;-53
2023/04/07 12:34:26;;;;;;;6.33;4.90;;;19.10;99.90;;;;;;5011099;28;20473;-51
2023/04/07 12:36:51;;;;;;;5.93;5.13;;;19.10;99.90;;;;;;5012682;28;20187;-52
2023/04/07 12:39:17;;;;;;;9.43;5.00;;;19.40;99.90;;;;;;5014537;28;20513;-52
2023/04/07 12:41:44;;;;;;;5.50;4.50;;;19.70;99.90;;;;;;5014396;28;20607;-53
2023/04/07 12:44:10;;;;;;;5.90;4.20;;;19.70;99.90;;;;;;5014327;28;20665;-53
2023/04/07 12:46:36;;;;;;;5.53;4.67;;;19.40;99.90;;;;;;5014749;28;20414;-52
2023/04/07 12:49:02;;;;;;;4.30;3.90;;;19.20;99.90;;;;;;5014175;28;20596;-53
2023/04/07 12:51:28;;;;;;;9.83;5.00;;;19.20;99.90;;;;;;5014073;28;20229;-54